Aktualne dane pomiarowe

Uwaga, wersja testowa! Automatyczne pobieranie danych za pomocą narzędzi lub skryptów to umożliwiających jest zabronione.

Dane meteo z obszaru Polski uzyskane na podstawie depesz SYNOP pobieranych co godzinę z NWS. Najedź myszką na symbol przedstawiony w tabeli, aby uzyskać informacje co do jego znaczenia. Prosimy pamiętać, że to testowa wersja strony, która jeszcze nie jest ukończona. Stworzono również jest krótki FAQ dotyczący korzystania z tej podstrony Anomalie temperatury w chwili obecnej odniesione są do okresu referencyjnego 1951-2016. Okres ten będzie później zmieniony na 1981-2010. Kliknij ikonę aby pobrać plik CSV. Kliknij ikonę aby wygenerować mapę synoptyczną dla danego terminu.

Wybierz Datę:    

        

Suwałki (12195)

Dane terminowe dla wybranej stacji. Kliknij datę, aby otrzymać dane z tego terminu dla wszystkich stacji.

TemperaturaZachmurzenieWiatrCiśnienieOpadyPogoda
 Data t td wb tx tn tg rh  Nt Nl Cl Cm Ch ws wd g1 g2 wx mslp ppp ch 24h 12h t ww ww w1 w2  
2019-09-10 23:00:00 13.1 9.0 10.5--- 7640.0wx-wx3wx--31022.0 999.6 0.7---------
2019-09-10 22:00:00 13.8 9.2 10.9--- 7450.0wx-wx3wx--31021.7 999.3 0.7---------
2019-09-10 21:00:00 13.8 9.2 10.9--- 7445.0wx-3wx-831021.4 999.0 0.5---------
2019-09-10 20:00:00 14.3 9.1 11.1--- 7140.0wx-3wx--31021.2 998.9 0.9---------
2019-09-10 19:00:00 15.6 9.0 11.6--- 6550.0wxwxwx4wx--41020.8 998.6 1.0---------
2019-09-10 18:00:00 16.0 9.2 11.9 20.1 15.9- 6450.0wxwxwx4wx-1541020.7 998.5 1.4- 0.012------
2019-09-10 17:00:00 16.0 9.2 11.9--- 6450.0wxwxwx4wx-1041020.2 998.0 1.5---------
2019-09-10 16:00:00 16.3 9.0 11.9--- 6250.0wxwxwx5wx101251019.8 997.6 1.7---------
2019-09-10 15:00:00 16.4 9.1 12.0--- 6240.0wxwxwx6wx121561019.2 997.1 2.1---------
2019-09-10 14:00:00 16.9 9.1 12.2--- 6040.0wxwxwx7wx131571018.6 996.5 1.9---------
2019-09-10 13:00:00 17.9 9.3 12.8--- 5740.0wxwxwx8wx141481017.9 995.9 1.8---------
2019-09-10 12:00:00 18.8 9.0 13.0--- 5330.0wxwxwx6wx131461016.9 995.0 1.1- 0.06------
2019-09-10 11:00:00 19.8 8.8 13.4--- 4930.0wxwxwx7wx131371016.4 994.6 1.0---------
2019-09-10 10:00:00 19.1 8.7 13.0--- 5135.0wxwxwxwx7wx12--1016.0 994.1 0.7---------
2019-09-10 09:00:00 17.9 9.8 13.0--- 5940.0wxwxwxwx5wx101251015.8 993.9 1.0---------
2019-09-10 08:00:00 17.8 10.2 13.2--- 6129.0wxwxwxwx6wx121261015.5 993.6 1.3---------
2019-09-10 07:00:00 16.6 10.7 12.9--- 6830.0wxwxwx5wx-1151015.4 993.4 1.8---------
2019-09-10 06:00:00 16.0 10.3 12.4 21.4 15.8 15 6925.0wx-wx4wx9--1015.0 992.9 1.9---wx-w1- 10.3
2019-09-10 05:00:00 16.1 8.1 11.4--- 5929.0wx-wx4wx--41014.4 992.3 1.2---------
2019-09-10 04:00:00 16.8 7.2 11.3--- 5330.0wx-wx5wx-951013.6 991.6 0.5---wx---
2019-09-10 03:00:00 17.2 6.4 11.2--- 4935.0wx-wxwx4wx--41012.9 991.0 -0.5---------
2019-09-10 02:00:00 17.5 6.7 11.4--- 4930.0wx-wx3wx--31013.0 991.1 -1.0---------
2019-09-10 01:00:00 17.2 6.7 11.3--- 5035.0wx-wx4wx--41013.0 991.1 -1.6---------
2019-09-10 00:00:00 17.5 7.0 11.6--- 5030.0wx-wx4wx--41013.4 991.5 -1.6- 0.06------
2019-09-09 23:00:00 17.9 7.3 11.9--- 5035.0wx-wx4wx--41014.0 992.1 -1.2---------
2019-09-09 22:00:00 18.6 7.4 12.3--- 4835.0wx-wx3wx--31014.6 992.7 -0.8---------
2019-09-09 21:00:00 19.6 7.3 12.7--- 4530.0wx-wx4wx--41014.9 993.1 -0.5---------
2019-09-09 20:00:00 20.4 7.7 13.2--- 4435.0wx-wx3wx--31015.0 993.3 -0.2---------
2019-09-09 19:00:00 20.8 7.8 13.4--- 4329.0wx-wx4wx--41015.2 993.5 0.3---------
2019-09-09 18:00:00 21.2 7.8 13.6 27.6 15.1- 4230.0wx-wx3wx-1431015.3 993.6 0.5- 0.012------
2019-09-09 17:00:00 22.8 7.7 14.3--- 3835.0wx-wx3wx--31015.1 993.5 0.3---------
2019-09-09 16:00:00 24.7 6.9 14.7--- 3229.0wx-wx5wx-1151014.6 993.2 -0.3---------
2019-09-09 15:00:00 25.8 6.9 15.2--- 3028.0wx-wx7wx131471014.4 993.1 -0.8---------
2019-09-09 14:00:00 26.7 6.7 15.5--- 2823.0wx-wx6wx111361014.5 993.2 -1.1---------
2019-09-09 13:00:00 27.2 7.1 15.8--- 2824.0wx-wxwx6wx121461014.8 993.5 -1.0---------
2019-09-09 12:00:00 27.4 9.2 16.8--- 3228.0wx-wxwx6wx131661015.1 993.9 -1.1- 0.06------
2019-09-09 11:00:00 26.9 9.7 16.8--- 3430.0wx-wxwx6wx121461015.6 994.3 -1.2---------
2019-09-09 10:00:00 25.5 13.4 18.0--- 4723.0wx-wxwx5wx-951015.9 994.5 -1.6---------
2019-09-09 09:00:00 23.2 13.9 17.3--- 5626.0wx-wxwx4wx9941016.6 995.0 -1.6---------
2019-09-09 08:00:00 20.8 15.1 17.0--- 7026.0wx-wx3wx--31017.3 995.5 -1.9---------
2019-09-09 07:00:00 17.7 14.8 15.7--- 8326.0wx-wxwx2wx--21018.1 996.1 -1.5---------
2019-09-09 06:00:00 15.2 14.9 15.0 17.0 12.5 11 9811.0wx-wxwx3wx--31018.8 996.6 -0.8 1.2 0.112wx-w1w2- 0.9
2019-09-09 05:00:00 12.7 12.2 12.3--- 972.3wxwxwx2wx--21019.8 997.4 -0.4---wx-w1--
2019-09-09 04:00:00 12.5 12.0 12.1--- 970.2wxwxwx1wx--11020.1 997.6 -0.5---wx-w1w2--
2019-09-09 03:00:00 12.6 12.1 12.2--- 970.2wxwxwx2wx--21019.8 997.4 -0.9---wx---
2019-09-09 02:00:00 13.3 12.7 12.8--- 960.4wxwxwx2wx--21020.2 997.8 -0.4---wx---
2019-09-09 01:00:00 13.7 12.9 13.1--- 954.4wxwxwx1wx--11020.5 998.1 -0.3---wx---
2019-09-09 00:00:00 14.2 13.1 13.4--- 936.0wxwxwx1wx--11020.6 998.3 0.4- 0.16wx-w1--
1.6 ms

 

Print Friendly, PDF & Email